Time,TemperatureF,DewpointF,PressureIn,WindDirection,WindDirectionDegrees,WindSpeedMPH,WindSpeedGustMPH,Humidity,HourlyPrecipIn,Conditions,Clouds,dailyrainin,SolarRadiationWatts/m^2,SoftwareType,DateUTC
2013-10-07 00:42:00,52.0,22.0,-100.00,SE,137,6.0,12.0,31,0.00,,,-99.99,0.000000,,2013-10-07 06:42:00,
2013-10-07 00:52:00,52.0,22.0,-100.00,SE,137,6.0,12.0,31,0.00,,,-99.99,0.000000,,2013-10-07 06:52:00,
2013-10-07 01:01:00,52.0,22.0,-100.00,SE,137,6.0,12.0,31,0.00,,,-99.99,0.000000,,2013-10-07 07:01:00,
2013-10-07 01:42:00,52.0,23.0,-100.00,West,264,5.0,9.0,32,0.00,,,0.00,0.000000,,2013-10-07 07:42:00,
2013-10-07 02:42:00,50.0,22.0,-100.00,SE,125,3.0,7.0,33,-99.99,,,0.00,0.000000,,2013-10-07 08:42:00,
2013-10-07 03:43:00,49.0,21.0,-100.00,SE,133,10.0,13.0,33,-99.99,,,0.00,0.000000,,2013-10-07 09:43:00,
2013-10-07 04:43:00,48.0,24.0,-100.00,SE,131,12.0,17.0,38,-99.99,,,0.00,0.000000,,2013-10-07 10:43:00,
2013-10-07 04:53:00,48.0,24.0,-100.00,SE,131,12.0,17.0,38,-99.99,,,0.00,0.000000,,2013-10-07 10:53:00,
2013-10-07 05:02:00,48.0,24.0,-100.00,SE,131,12.0,17.0,38,-99.99,,,0.00,0.000000,,2013-10-07 11:02:00,
2013-10-07 05:42:00,49.0,24.0,-100.00,SE,135,6.0,16.0,37,0.00,,,-99.99,0.000000,,2013-10-07 11:42:00,
2013-10-07 05:52:00,49.0,24.0,-100.00,SE,135,6.0,16.0,37,0.00,,,-99.99,0.000000,,2013-10-07 11:52:00,
2013-10-07 06:02:00,49.0,24.0,-100.00,SE,135,6.0,16.0,37,0.00,,,-99.99,0.000000,,2013-10-07 12:02:00,
2013-10-07 06:43:00,49.0,23.0,-100.00,SE,141,7.0,15.0,36,0.00,,,0.00,0.000000,,2013-10-07 12:43:00,
2013-10-07 07:42:00,49.0,22.0,-100.00,WNW,282,3.0,10.0,34,-99.99,,,0.00,0.000000,,2013-10-07 13:42:00,
2013-10-07 08:42:00,47.0,23.0,-100.00,SSE,149,3.0,7.0,38,-99.99,,,0.00,3.000000,,2013-10-07 14:42:00,
2013-10-07 08:52:00,47.0,23.0,-100.00,SSE,149,3.0,7.0,38,-99.99,,,0.00,3.000000,,2013-10-07 14:52:00,
2013-10-07 09:01:00,47.0,23.0,-100.00,SSE,149,3.0,7.0,38,-99.99,,,0.00,3.000000,,2013-10-07 15:01:00,
2013-10-07 11:42:00,56.0,29.0,-100.00,NW,312,6.0,9.0,35,-99.99,,,0.00,486.000000,,2013-10-07 17:42:00,
2013-10-07 11:52:00,56.0,29.0,-100.00,NW,312,6.0,9.0,35,-99.99,,,0.00,486.000000,,2013-10-07 17:52:00,
2013-10-07 12:02:00,56.0,29.0,-100.00,NW,312,6.0,9.0,35,-99.99,,,0.00,486.000000,,2013-10-07 18:02:00,
2013-10-07 12:42:00,59.0,28.0,-100.00,West,278,7.0,16.0,30,0.00,,,0.00,604.000000,,2013-10-07 18:42:00,
2013-10-07 12:52:00,59.0,28.0,-100.00,West,278,7.0,16.0,30,0.00,,,0.00,604.000000,,2013-10-07 18:52:00,
2013-10-07 13:02:00,59.0,28.0,-100.00,West,278,7.0,16.0,30,0.00,,,0.00,604.000000,,2013-10-07 19:02:00,
2013-10-07 13:42:00,58.0,27.0,-100.00,West,277,14.0,26.0,30,0.00,,,0.00,637.000000,,2013-10-07 19:42:00,
2013-10-07 13:52:00,58.0,27.0,-100.00,West,277,14.0,26.0,30,0.00,,,0.00,637.000000,,2013-10-07 19:52:00,
2013-10-07 14:02:00,58.0,27.0,-100.00,West,277,14.0,26.0,30,0.00,,,0.00,637.000000,,2013-10-07 20:02:00,
2013-10-07 14:43:00,59.0,25.0,-100.00,West,266,11.0,22.0,27,0.00,,,0.00,656.000000,,2013-10-07 20:43:00,
2013-10-07 14:52:00,59.0,25.0,-100.00,West,266,11.0,22.0,27,0.00,,,0.00,656.000000,,2013-10-07 20:52:00,
2013-10-07 15:02:00,59.0,25.0,-100.00,West,266,11.0,22.0,27,0.00,,,0.00,656.000000,,2013-10-07 21:02:00,
2013-10-07 15:43:00,60.0,25.0,-100.00,West,270,12.0,22.0,26,0.00,,,0.00,668.000000,,2013-10-07 21:43:00,
2013-10-07 15:55:00,60.0,25.0,-100.00,West,270,12.0,22.0,26,0.00,,,0.00,668.000000,,2013-10-07 21:55:00,
2013-10-07 16:03:00,60.0,25.0,-100.00,West,270,12.0,22.0,26,0.00,,,0.00,668.000000,,2013-10-07 22:03:00,
2013-10-07 16:43:00,57.0,27.0,-100.00,West,273,16.0,25.0,32,0.00,,,0.00,526.000000,,2013-10-07 22:43:00,
2013-10-07 16:53:00,57.0,27.0,-100.00,West,273,16.0,25.0,32,0.00,,,0.00,526.000000,,2013-10-07 22:53:00,
2013-10-07 17:02:00,57.0,27.0,-100.00,West,273,16.0,25.0,32,0.00,,,0.00,526.000000,,2013-10-07 23:02:00,
2013-10-07 17:42:00,56.0,26.0,-100.00,West,261,6.0,23.0,31,0.00,,,0.00,211.000000,,2013-10-07 23:42:00,
2013-10-07 17:52:00,56.0,26.0,-100.00,West,261,6.0,23.0,31,0.00,,,0.00,211.000000,,2013-10-07 23:52:00,
2013-10-07 18:02:00,56.0,26.0,-100.00,West,261,6.0,23.0,31,0.00,,,0.00,211.000000,,2013-10-08 00:02:00,
2013-10-07 18:42:00,52.0,24.0,-100.00,West,268,16.0,25.0,33,0.00,,,0.00,106.000000,,2013-10-08 00:42:00,
2013-10-07 18:52:00,52.0,24.0,-100.00,West,268,16.0,25.0,33,0.00,,,0.00,106.000000,,2013-10-08 00:52:00,
2013-10-07 19:02:00,52.0,24.0,-100.00,West,268,16.0,25.0,33,0.00,,,0.00,106.000000,,2013-10-08 01:02:00,
2013-10-07 19:42:00,49.0,29.0,-100.00,WSW,250,6.0,25.0,45,0.00,,,0.00,28.000000,,2013-10-08 01:42:00,
2013-10-07 19:52:00,49.0,29.0,-100.00,WSW,250,6.0,25.0,45,0.00,,,0.00,28.000000,,2013-10-08 01:52:00,
2013-10-07 20:03:00,49.0,29.0,-100.00,WSW,250,6.0,25.0,45,0.00,,,0.00,28.000000,,2013-10-08 02:03:00,
2013-10-07 20:42:00,47.0,29.0,-100.00,West,272,13.0,21.0,50,0.00,,,0.00,0.000000,,2013-10-08 02:42:00,
2013-10-07 20:52:00,47.0,29.0,-100.00,West,272,13.0,21.0,50,0.00,,,0.00,0.000000,,2013-10-08 02:52:00,
2013-10-07 21:02:00,47.0,29.0,-100.00,West,272,13.0,21.0,50,0.00,,,0.00,0.000000,,2013-10-08 03:02:00,
2013-10-07 21:44:00,45.0,27.0,-100.00,West,274,12.0,25.0,48,0.00,,,0.00,0.000000,,2013-10-08 03:44:00,
2013-10-07 21:55:00,45.0,27.0,-100.00,West,274,12.0,25.0,48,0.00,,,0.00,0.000000,,2013-10-08 03:55:00,
2013-10-07 22:04:00,45.0,27.0,-100.00,West,274,12.0,25.0,48,0.00,,,0.00,0.000000,,2013-10-08 04:04:00,
2013-10-07 22:43:00,43.0,27.0,-100.00,West,277,11.0,20.0,53,0.00,,,0.00,0.000000,,2013-10-08 04:43:00,
2013-10-07 22:53:00,43.0,27.0,-100.00,West,277,11.0,20.0,53,0.00,,,0.00,0.000000,,2013-10-08 04:53:00,
2013-10-07 23:03:00,43.0,27.0,-100.00,West,277,11.0,20.0,53,0.00,,,0.00,0.000000,,2013-10-08 05:03:00,
2013-10-07 23:42:00,42.0,30.0,-100.00,West,272,16.0,29.0,61,0.00,,,0.00,0.000000,,2013-10-08 05:42:00,
2013-10-07 23:53:00,42.0,30.0,-100.00,West,272,16.0,29.0,61,0.00,,,0.00,0.000000,,2013-10-08 05:53:00,